Time,TemperatureF,DewpointF,PressureIn,WindDirection,WindDirectionDegrees,WindSpeedMPH,WindSpeedGustMPH,Humidity,HourlyPrecipIn,Conditions,Clouds,dailyrainin,SoftwareType,DateUTC
2016-07-23 00:04:00,89.1,71.3,29.94,East,90,0.0,0.0,56,0.00,CLR,,0.00,WeatherDisplay:10.37,2016-07-23 05:04:00,
2016-07-23 00:09:00,89.1,71.3,29.94,East,90,0.0,0.0,56,0.00,CLR,,0.00,WeatherDisplay:10.37,2016-07-23 05:09:00,
2016-07-23 00:14:00,88.9,71.7,29.94,East,90,0.0,0.0,57,0.00,CLR,,0.00,WeatherDisplay:10.37,2016-07-23 05:14:00,
2016-07-23 00:19:00,88.5,71.3,29.94,ENE,68,0.0,0.0,57,0.00,CLR,,0.00,WeatherDisplay:10.37,2016-07-23 05:19:00,
2016-07-23 00:24:00,88.5,71.3,29.94,SE,135,0.0,0.0,57,0.00,CLR,,0.00,WeatherDisplay:10.37,2016-07-23 05:24:00,
2016-07-23 00:29:00,88.2,71.5,29.94,ENE,68,0.0,0.0,58,0.00,CLR,,0.00,WeatherDisplay:10.37,2016-07-23 05:29:00,
2016-07-23 00:34:00,88.2,71.5,29.94,ESE,112,0.0,0.0,58,0.00,CLR,,0.00,WeatherDisplay:10.37,2016-07-23 05:34:00,
2016-07-23 00:39:00,88.0,71.9,29.94,SE,135,0.0,0.0,59,0.00,CLR,,0.00,WeatherDisplay:10.37,2016-07-23 05:39:00,
2016-07-23 00:44:00,88.0,71.9,29.94,SE,135,0.0,0.0,59,0.00,CLR,,0.00,WeatherDisplay:10.37,2016-07-23 05:44:00,
2016-07-23 00:49:00,87.8,71.7,29.94,East,90,0.0,0.0,59,0.00,CLR,,0.00,WeatherDisplay:10.37,2016-07-23 05:49:00,
2016-07-23 00:54:00,87.6,71.0,29.94,ESE,112,0.0,0.0,58,0.00,CLR,,0.00,WeatherDisplay:10.37,2016-07-23 05:54:00,
2016-07-23 00:59:00,87.4,70.8,29.94,ESE,112,0.0,0.0,58,0.00,CLR,,0.00,WeatherDisplay:10.37,2016-07-23 05:59:00,
2016-07-23 01:04:00,87.6,71.0,29.94,SE,135,0.0,0.0,58,0.00,CLR,,0.00,WeatherDisplay:10.37,2016-07-23 06:04:00,
2016-07-23 01:09:00,87.3,70.7,29.94,ESE,112,0.0,0.0,58,0.00,CLR,,0.00,WeatherDisplay:10.37,2016-07-23 06:09:00,
2016-07-23 01:14:00,87.3,70.7,29.94,ESE,112,0.0,0.0,58,0.00,CLR,,0.00,WeatherDisplay:10.37,2016-07-23 06:14:00,
2016-07-23 01:19:00,87.3,71.2,29.93,East,90,0.0,0.0,59,0.00,CLR,,0.00,WeatherDisplay:10.37,2016-07-23 06:19:00,
2016-07-23 01:24:00,86.9,70.8,29.93,SE,135,0.0,0.0,59,0.00,CLR,,0.00,WeatherDisplay:10.37,2016-07-23 06:24:00,
2016-07-23 01:29:00,86.7,70.7,29.93,ESE,112,0.0,0.0,59,0.00,CLR,,0.00,WeatherDisplay:10.37,2016-07-23 06:29:00,
2016-07-23 01:34:00,86.9,70.8,29.93,SE,135,0.0,0.0,59,0.00,CLR,,0.00,WeatherDisplay:10.37,2016-07-23 06:34:00,
2016-07-23 01:39:00,86.5,70.5,29.93,ESE,112,0.0,0.0,59,0.00,CLR,,0.00,WeatherDisplay:10.37,2016-07-23 06:39:00,
2016-07-23 01:44:00,86.4,70.8,29.93,SE,135,0.0,0.0,60,0.00,CLR,,0.00,WeatherDisplay:10.37,2016-07-23 06:44:00,
2016-07-23 01:49:00,86.2,70.7,29.93,North,0,0.0,0.0,60,0.00,CLR,,0.00,WeatherDisplay:10.37,2016-07-23 06:49:00,
2016-07-23 01:54:00,86.2,70.7,29.93,ESE,112,0.0,0.0,60,0.00,CLR,,0.00,WeatherDisplay:10.37,2016-07-23 06:54:00,
2016-07-23 01:59:00,86.2,70.7,29.93,NE,45,0.0,0.0,60,0.00,CLR,,0.00,WeatherDisplay:10.37,2016-07-23 06:59:00,
2016-07-23 02:04:00,86.0,70.5,29.93,SE,135,0.0,0.0,60,0.00,CLR,,0.00,WeatherDisplay:10.37,2016-07-23 07:04:00,
2016-07-23 02:09:00,85.8,70.8,29.93,ENE,68,0.0,0.0,61,0.00,CLR,,0.00,WeatherDisplay:10.37,2016-07-23 07:09:00,
2016-07-23 02:14:00,85.8,70.8,29.93,SE,135,0.0,0.0,61,0.00,CLR,,0.00,WeatherDisplay:10.37,2016-07-23 07:14:00,
2016-07-23 02:19:00,85.5,70.5,29.92,ENE,68,0.0,0.0,61,0.00,CLR,,0.00,WeatherDisplay:10.37,2016-07-23 07:19:00,
2016-07-23 02:24:00,85.5,71.0,29.92,ESE,112,0.0,0.0,62,0.00,CLR,,0.00,WeatherDisplay:10.37,2016-07-23 07:24:00,
2016-07-23 02:29:00,85.3,70.8,29.92,SSW,202,0.0,0.0,62,0.00,CLR,,0.00,WeatherDisplay:10.37,2016-07-23 07:29:00,
2016-07-23 02:34:00,85.1,70.6,29.92,SE,135,0.0,0.0,62,0.00,CLR,,0.00,WeatherDisplay:10.37,2016-07-23 07:34:00,
2016-07-23 02:39:00,84.9,70.9,29.92,SSE,158,0.0,0.0,63,0.00,CLR,,0.00,WeatherDisplay:10.37,2016-07-23 07:39:00,
2016-07-23 02:44:00,84.9,70.9,29.92,East,90,0.0,0.0,63,0.00,CLR,,0.00,WeatherDisplay:10.37,2016-07-23 07:44:00,
2016-07-23 02:49:00,84.7,70.7,29.92,SE,135,0.0,0.0,63,0.00,CLR,,0.00,WeatherDisplay:10.37,2016-07-23 07:49:00,
2016-07-23 02:54:00,84.7,70.7,29.92,ESE,112,0.0,0.0,63,0.00,CLR,,0.00,WeatherDisplay:10.37,2016-07-23 07:54:00,
2016-07-23 02:59:00,84.4,70.4,29.92,SE,135,0.0,0.0,63,0.00,CLR,,0.00,WeatherDisplay:10.37,2016-07-23 07:59:00,
2016-07-23 03:04:00,84.4,70.4,29.92,ENE,68,0.0,0.0,63,0.00,CLR,,0.00,WeatherDisplay:10.37,2016-07-23 08:04:00,
2016-07-23 03:09:00,84.2,70.7,29.92,South,180,0.0,0.0,64,0.00,CLR,,0.00,WeatherDisplay:10.37,2016-07-23 08:09:00,
2016-07-23 03:14:00,84.4,70.9,29.92,SE,135,0.0,0.0,64,0.00,CLR,,0.00,WeatherDisplay:10.37,2016-07-23 08:14:00,
2016-07-23 03:19:00,84.2,70.7,29.92,ESE,112,0.0,0.0,64,0.00,CLR,,0.00,WeatherDisplay:10.37,2016-07-23 08:19:00,
2016-07-23 03:24:00,84.0,70.5,29.92,SSW,202,0.0,0.0,64,0.00,CLR,,0.00,WeatherDisplay:10.37,2016-07-23 08:24:00,
2016-07-23 03:29:00,83.8,70.4,29.92,WSW,248,0.0,0.0,64,0.00,CLR,,0.00,WeatherDisplay:10.37,2016-07-23 08:29:00,
2016-07-23 03:34:00,84.0,70.5,29.92,SSE,158,0.0,0.0,64,0.00,CLR,,0.00,WeatherDisplay:10.37,2016-07-23 08:34:00,
2016-07-23 03:39:00,83.7,70.2,29.92,SSE,158,0.0,0.0,64,0.00,CLR,,0.00,WeatherDisplay:10.37,2016-07-23 08:39:00,
2016-07-23 03:44:00,83.7,70.6,29.92,ESE,112,0.0,0.0,65,0.00,CLR,,0.00,WeatherDisplay:10.37,2016-07-23 08:44:00,
2016-07-23 03:49:00,83.7,70.6,29.92,SE,135,0.0,0.0,65,0.00,CLR,,0.00,WeatherDisplay:10.37,2016-07-23 08:49:00,
2016-07-23 03:54:00,83.7,70.6,29.92,SE,135,0.0,0.0,65,0.00,CLR,,0.00,WeatherDisplay:10.37,2016-07-23 08:54:00,
2016-07-23 03:59:00,83.5,70.5,29.92,East,90,0.0,0.0,65,0.00,CLR,,0.00,WeatherDisplay:10.37,2016-07-23 08:59:00,
2016-07-23 04:04:00,83.3,70.3,29.92,ENE,68,0.0,0.0,65,0.00,CLR,,0.00,WeatherDisplay:10.37,2016-07-23 09:04:00,
2016-07-23 04:09:00,83.1,70.1,29.92,SSE,158,0.0,0.0,65,0.00,CLR,,0.00,WeatherDisplay:10.37,2016-07-23 09:09:00,
2016-07-23 04:14:00,83.3,70.8,29.92,East,90,0.0,0.0,66,0.00,CLR,,0.00,WeatherDisplay:10.37,2016-07-23 09:14:00,
2016-07-23 04:19:00,83.1,70.6,29.92,ESE,112,0.0,0.0,66,0.00,CLR,,0.00,WeatherDisplay:10.37,2016-07-23 09:19:00,
2016-07-23 04:24:00,83.1,70.6,29.92,SE,135,0.0,0.0,66,0.00,CLR,,0.00,WeatherDisplay:10.37,2016-07-23 09:24:00,
2016-07-23 04:29:00,82.8,70.2,29.92,SE,135,0.0,0.0,66,0.00,CLR,,0.00,WeatherDisplay:10.37,2016-07-23 09:29:00,
2016-07-23 04:34:00,82.8,70.2,29.92,South,180,0.0,0.0,66,0.00,CLR,,0.00,WeatherDisplay:10.37,2016-07-23 09:34:00,
2016-07-23 04:39:00,82.8,70.2,29.92,SE,135,0.0,0.0,66,0.00,CLR,,0.00,WeatherDisplay:10.37,2016-07-23 09:39:00,
2016-07-23 04:44:00,82.6,70.1,29.92,SSE,158,0.0,0.0,66,0.00,CLR,,0.00,WeatherDisplay:10.37,2016-07-23 09:44:00,
2016-07-23 04:49:00,82.6,70.1,29.92,SSE,158,0.0,0.0,66,0.00,CLR,,0.00,WeatherDisplay:10.37,2016-07-23 09:49:00,
2016-07-23 04:54:00,82.4,69.9,29.92,South,180,0.0,0.0,66,0.00,CLR,,0.00,WeatherDisplay:10.37,2016-07-23 09:54:00,
2016-07-23 04:59:00,82.6,70.5,29.91,SSE,158,0.0,0.0,67,0.00,CLR,,0.00,WeatherDisplay:10.37,2016-07-23 09:59:00,
2016-07-23 05:04:00,82.4,70.3,29.91,SE,135,0.0,0.0,67,0.00,CLR,,0.00,WeatherDisplay:10.37,2016-07-23 10:04:00,
2016-07-23 05:09:00,82.2,70.2,29.91,South,180,0.0,0.0,67,0.00,CLR,,0.00,WeatherDisplay:10.37,2016-07-23 10:09:00,
2016-07-23 05:14:00,82.0,70.0,29.91,NW,315,0.0,0.0,67,0.00,CLR,,0.00,WeatherDisplay:10.37,2016-07-23 10:14:00,
2016-07-23 05:19:00,82.2,70.6,29.91,SE,135,0.0,0.0,68,0.00,CLR,,0.00,WeatherDisplay:10.37,2016-07-23 10:19:00,
2016-07-23 05:24:00,82.0,70.4,29.92,SE,135,0.0,0.0,68,0.00,CLR,,0.00,WeatherDisplay:10.37,2016-07-23 10:24:00,
2016-07-23 05:29:00,81.9,70.3,29.92,SE,135,0.0,0.0,68,0.00,CLR,,0.00,WeatherDisplay:10.37,2016-07-23 10:29:00,
2016-07-23 05:34:00,81.9,70.7,29.92,SE,135,0.0,0.0,69,0.00,CLR,,0.00,WeatherDisplay:10.37,2016-07-23 10:34:00,
2016-07-23 05:39:00,81.9,70.7,29.92,SSE,158,0.0,0.0,69,0.00,CLR,,0.00,WeatherDisplay:10.37,2016-07-23 10:39:00,
2016-07-23 05:44:00,81.5,70.3,29.92,SSW,202,0.0,0.0,69,0.00,CLR,,0.00,WeatherDisplay:10.37,2016-07-23 10:44:00,
2016-07-23 05:49:00,81.5,70.3,29.92,ESE,112,0.0,0.0,69,0.00,CLR,,0.00,WeatherDisplay:10.37,2016-07-23 10:49:00,
2016-07-23 05:54:00,81.5,70.3,29.92,SSW,202,0.0,0.0,69,0.00,CLR,,0.00,WeatherDisplay:10.37,2016-07-23 10:54:00,
2016-07-23 05:59:00,81.5,70.3,29.92,SSE,158,0.0,0.0,69,0.00,CLR,,0.00,WeatherDisplay:10.37,2016-07-23 10:59:00,
2016-07-23 06:04:00,81.5,70.8,29.92,SE,135,0.0,0.0,70,0.00,CLR,,0.00,WeatherDisplay:10.37,2016-07-23 11:04:00,
2016-07-23 06:09:00,81.5,70.8,29.92,SE,135,0.0,0.0,70,0.00,CLR,,0.00,WeatherDisplay:10.37,2016-07-23 11:09:00,
2016-07-23 06:14:00,81.1,70.4,29.92,SE,135,0.0,0.0,70,0.00,CLR,,0.00,WeatherDisplay:10.37,2016-07-23 11:14:00,
2016-07-23 06:19:00,81.0,70.7,29.93,NNW,338,0.0,0.0,71,0.00,CLR,,0.00,WeatherDisplay:10.37,2016-07-23 11:19:00,
2016-07-23 06:24:00,81.1,70.8,29.93,SSE,158,0.0,0.0,71,0.00,CLR,,0.00,WeatherDisplay:10.37,2016-07-23 11:24:00,
2016-07-23 06:29:00,81.1,70.8,29.93,SSE,158,0.0,0.0,71,0.00,CLR,,0.00,WeatherDisplay:10.37,2016-07-23 11:29:00,
2016-07-23 06:34:00,80.8,70.9,29.93,South,180,0.0,0.0,72,0.00,CLR,,0.00,WeatherDisplay:10.37,2016-07-23 11:34:00,
2016-07-23 06:39:00,80.6,70.7,29.93,East,90,0.0,0.0,72,0.00,CLR,,0.00,WeatherDisplay:10.37,2016-07-23 11:39:00,
2016-07-23 06:44:00,80.6,70.7,29.93,West,270,0.0,0.0,72,0.00,CLR,,0.00,WeatherDisplay:10.37,2016-07-23 11:44:00,
2016-07-23 06:49:00,80.8,70.9,29.93,ENE,68,0.0,0.0,72,0.00,CLR,,0.00,WeatherDisplay:10.37,2016-07-23 11:49:00,
2016-07-23 06:54:00,80.8,71.3,29.93,South,180,0.0,0.0,73,0.00,CLR,,0.00,WeatherDisplay:10.37,2016-07-23 11:54:00,
2016-07-23 06:59:00,80.8,71.3,29.94,SSE,158,0.0,0.0,73,0.00,CLR,,0.00,WeatherDisplay:10.37,2016-07-23 11:59:00,
2016-07-23 07:04:00,80.6,71.1,29.94,ESE,112,0.0,0.0,73,0.00,CLR,,0.00,WeatherDisplay:10.37,2016-07-23 12:04:00,
2016-07-23 07:09:00,80.6,71.1,29.94,SE,135,0.0,0.0,73,0.00,CLR,,0.00,WeatherDisplay:10.37,2016-07-23 12:09:00,
2016-07-23 07:14:00,80.4,71.0,29.94,East,90,0.0,0.0,73,0.00,CLR,,0.00,WeatherDisplay:10.37,2016-07-23 12:14:00,
2016-07-23 07:19:00,80.6,71.1,29.94,East,90,0.0,0.0,73,0.00,CLR,,0.00,WeatherDisplay:10.37,2016-07-23 12:19:00,
2016-07-23 07:24:00,80.6,71.1,29.94,SE,135,0.0,0.0,73,0.00,CLR,,0.00,WeatherDisplay:10.37,2016-07-23 12:24:00,
2016-07-23 07:29:00,80.6,71.1,29.94,SE,135,0.0,0.0,73,0.00,CLR,,0.00,WeatherDisplay:10.37,2016-07-23 12:29:00,
2016-07-23 07:34:00,80.6,71.1,29.94,SSE,158,0.0,0.0,73,0.00,CLR,,0.00,WeatherDisplay:10.37,2016-07-23 12:34:00,
2016-07-23 07:39:00,80.8,71.7,29.95,ESE,112,0.0,0.0,74,0.00,CLR,,0.00,WeatherDisplay:10.37,2016-07-23 12:39:00,
2016-07-23 07:44:00,80.8,71.7,29.95,SE,135,0.0,0.0,74,0.00,CLR,,0.00,WeatherDisplay:10.37,2016-07-23 12:44:00,
2016-07-23 07:49:00,80.8,71.7,29.95,SSE,158,0.0,0.0,74,0.00,CLR,,0.00,WeatherDisplay:10.37,2016-07-23 12:49:00,
2016-07-23 07:54:00,81.0,71.9,29.95,SSE,158,0.0,0.0,74,0.00,CLR,,0.00,WeatherDisplay:10.37,2016-07-23 12:54:00,
2016-07-23 07:59:00,81.0,71.9,29.96,ENE,68,0.0,0.0,74,0.00,CLR,,0.00,WeatherDisplay:10.37,2016-07-23 12:59:00,
2016-07-23 08:04:00,81.1,72.1,29.96,South,180,0.0,0.0,74,0.00,CLR,,0.00,WeatherDisplay:10.37,2016-07-23 13:04:00,
2016-07-23 08:09:00,81.1,72.1,29.96,East,90,0.0,0.0,74,0.00,CLR,,0.00,WeatherDisplay:10.37,2016-07-23 13:09:00,
2016-07-23 08:14:00,81.3,72.2,29.96,South,180,0.0,0.0,74,0.00,CLR,,0.00,WeatherDisplay:10.37,2016-07-23 13:14:00,
2016-07-23 08:19:00,81.9,72.8,29.96,SSW,202,0.0,0.0,74,0.00,CLR,,0.00,WeatherDisplay:10.37,2016-07-23 13:19:00,
2016-07-23 08:24:00,81.9,72.8,29.96,South,180,0.0,0.0,74,0.00,CLR,,0.00,WeatherDisplay:10.37,2016-07-23 13:24:00,
2016-07-23 08:29:00,82.0,72.9,29.96,NNW,338,0.0,0.0,74,0.00,CLR,,0.00,WeatherDisplay:10.37,2016-07-23 13:29:00,
2016-07-23 08:34:00,82.2,73.1,29.96,SW,225,0.0,0.0,74,0.00,CLR,,0.00,WeatherDisplay:10.37,2016-07-23 13:34:00,
2016-07-23 08:39:00,82.4,72.9,29.97,SW,225,0.0,0.0,73,0.00,CLR,,0.00,WeatherDisplay:10.37,2016-07-23 13:39:00,
2016-07-23 08:44:00,82.6,73.4,29.97,WSW,248,0.0,0.0,74,0.00,CLR,,0.00,WeatherDisplay:10.37,2016-07-23 13:44:00,
2016-07-23 08:49:00,82.9,73.4,29.97,North,0,0.0,0.0,73,0.00,CLR,,0.00,WeatherDisplay:10.37,2016-07-23 13:49:00,
2016-07-23 08:54:00,83.3,73.7,29.97,SW,225,0.0,0.0,73,0.00,CLR,,0.00,WeatherDisplay:10.37,2016-07-23 13:54:00,
2016-07-23 08:59:00,83.7,74.1,29.97,South,180,0.0,0.0,73,0.00,CLR,,0.00,WeatherDisplay:10.37,2016-07-23 13:59:00,
2016-07-23 09:04:00,84.0,74.0,29.97,SSE,158,0.0,0.0,72,0.00,CLR,,0.00,WeatherDisplay:10.37,2016-07-23 14:04:00,
2016-07-23 09:09:00,84.0,74.0,29.97,SE,135,0.0,0.0,72,0.00,CLR,,0.00,WeatherDisplay:10.37,2016-07-23 14:09:00,
2016-07-23 09:14:00,84.4,73.9,29.97,South,180,0.0,0.0,71,0.00,CLR,,0.00,WeatherDisplay:10.37,2016-07-23 14:14:00,
2016-07-23 09:19:00,84.6,73.7,29.98,SSW,202,0.0,0.0,70,0.00,CLR,,0.00,WeatherDisplay:10.37,2016-07-23 14:19:00,
2016-07-23 09:24:00,84.7,73.9,29.98,WSW,248,0.0,0.0,70,0.00,CLR,,0.00,WeatherDisplay:10.37,2016-07-23 14:24:00,
2016-07-23 09:29:00,85.1,74.2,29.98,SSE,158,0.0,0.0,70,0.00,CLR,,0.00,WeatherDisplay:10.37,2016-07-23 14:29:00,
2016-07-23 09:34:00,85.3,74.0,29.98,SW,225,0.0,0.0,69,0.00,CLR,,0.00,WeatherDisplay:10.37,2016-07-23 14:34:00,
2016-07-23 09:39:00,85.6,74.3,29.97,West,270,0.0,0.0,69,0.00,CLR,,0.00,WeatherDisplay:10.37,2016-07-23 14:39:00,
2016-07-23 09:44:00,85.8,74.5,29.97,West,270,0.0,0.0,69,0.00,CLR,,0.00,WeatherDisplay:10.37,2016-07-23 14:44:00,
2016-07-23 09:49:00,86.2,74.8,29.97,WSW,248,0.0,0.0,69,0.00,CLR,,0.00,WeatherDisplay:10.37,2016-07-23 14:49:00,
2016-07-23 09:54:00,86.4,74.5,29.97,SSW,202,0.0,0.0,68,0.00,CLR,,0.00,WeatherDisplay:10.37,2016-07-23 14:54:00,
2016-07-23 09:59:00,86.7,74.9,29.97,SSE,158,0.0,0.0,68,0.00,CLR,,0.00,WeatherDisplay:10.37,2016-07-23 14:59:00,
2016-07-23 10:04:00,86.7,74.4,29.97,South,180,0.0,0.0,67,0.00,CLR,,0.00,WeatherDisplay:10.37,2016-07-23 15:04:00,
2016-07-23 10:09:00,87.1,74.3,29.97,SW,225,0.0,0.0,66,0.00,CLR,,0.00,WeatherDisplay:10.37,2016-07-23 15:09:00,
2016-07-23 10:14:00,87.1,73.9,29.97,South,180,0.0,0.0,65,0.00,CLR,,0.00,WeatherDisplay:10.37,2016-07-23 15:14:00,
2016-07-23 10:19:00,87.6,74.9,29.97,South,180,0.0,0.0,66,0.00,CLR,,0.00,WeatherDisplay:10.37,2016-07-23 15:19:00,
2016-07-23 10:24:00,87.4,74.7,29.97,SE,135,0.0,0.0,66,0.00,CLR,,0.00,WeatherDisplay:10.37,2016-07-23 15:24:00,
2016-07-23 10:29:00,87.8,75.0,29.97,SSE,158,0.0,0.0,66,0.00,CLR,,0.00,WeatherDisplay:10.37,2016-07-23 15:29:00,
2016-07-23 10:34:00,88.2,74.9,29.97,SSW,202,0.0,0.0,65,0.00,CLR,,0.00,WeatherDisplay:10.37,2016-07-23 15:34:00,
2016-07-23 10:39:00,88.3,74.6,29.97,SE,135,0.0,0.0,64,0.00,CLR,,0.00,WeatherDisplay:10.37,2016-07-23 15:39:00,
2016-07-23 10:44:00,88.5,74.8,29.97,South,180,0.0,0.0,64,0.00,CLR,,0.00,WeatherDisplay:10.37,2016-07-23 15:44:00,
2016-07-23 10:49:00,88.7,75.0,29.97,WSW,248,0.0,0.0,64,0.00,CLR,,0.00,WeatherDisplay:10.37,2016-07-23 15:49:00,
2016-07-23 10:54:00,88.9,75.1,29.97,West,270,0.0,0.0,64,0.00,CLR,,0.00,WeatherDisplay:10.37,2016-07-23 15:54:00,
2016-07-23 10:59:00,89.2,75.0,29.97,West,270,0.0,0.0,63,0.00,CLR,,0.00,WeatherDisplay:10.37,2016-07-23 15:59:00,
2016-07-23 11:04:00,89.2,75.0,29.97,WSW,248,0.0,0.0,63,0.00,CLR,,0.00,WeatherDisplay:10.37,2016-07-23 16:04:00,
2016-07-23 11:09:00,89.6,75.3,29.97,SSW,202,0.0,0.0,63,0.00,CLR,,0.00,WeatherDisplay:10.37,2016-07-23 16:09:00,
2016-07-23 11:14:00,89.8,75.0,29.97,SSE,158,0.0,0.0,62,0.00,CLR,,0.00,WeatherDisplay:10.37,2016-07-23 16:14:00,
2016-07-23 11:19:00,90.0,75.2,29.98,SSE,158,0.0,0.0,62,0.00,CLR,,0.00,WeatherDisplay:10.37,2016-07-23 16:19:00,
2016-07-23 11:24:00,90.0,75.2,29.98,WSW,248,0.0,0.0,62,0.00,CLR,,0.00,WeatherDisplay:10.37,2016-07-23 16:24:00,
2016-07-23 11:29:00,90.3,74.5,29.98,ENE,68,0.0,0.0,60,0.00,CLR,,0.00,WeatherDisplay:10.37,2016-07-23 16:29:00,
2016-07-23 11:34:00,90.5,75.2,29.98,ENE,68,0.0,0.0,61,0.00,CLR,,0.00,WeatherDisplay:10.37,2016-07-23 16:34:00,
2016-07-23 11:39:00,90.7,74.9,29.97,NNW,338,0.0,0.0,60,0.00,CLR,,0.00,WeatherDisplay:10.37,2016-07-23 16:39:00,
2016-07-23 11:44:00,90.9,75.1,29.97,SSE,158,0.0,0.0,60,0.00,CLR,,0.00,WeatherDisplay:10.37,2016-07-23 16:44:00,
2016-07-23 11:49:00,91.2,75.4,29.97,North,0,0.0,0.0,60,0.00,CLR,,0.00,WeatherDisplay:10.37,2016-07-23 16:49:00,
2016-07-23 11:54:00,91.2,74.4,29.97,WSW,248,0.0,0.0,58,0.00,CLR,,0.00,WeatherDisplay:10.37,2016-07-23 16:54:00,
2016-07-23 11:59:00,91.6,74.7,29.95,SSE,158,0.0,0.0,58,0.00,CLR,,0.00,WeatherDisplay:10.37,2016-07-23 16:59:00,
2016-07-23 12:04:00,91.4,74.5,29.95,ENE,68,0.0,0.0,58,0.00,CLR,,0.00,WeatherDisplay:10.37,2016-07-23 17:04:00,
2016-07-23 12:09:00,91.4,74.5,29.95,ENE,68,0.0,0.0,58,0.00,CLR,,0.00,WeatherDisplay:10.37,2016-07-23 17:09:00,
2016-07-23 12:14:00,91.9,74.5,29.95,SSE,158,0.0,0.0,57,0.00,CLR,,0.00,WeatherDisplay:10.37,2016-07-23 17:14:00,
2016-07-23 12:19:00,92.3,74.9,29.96,South,180,0.0,0.0,57,0.00,CLR,,0.00,WeatherDisplay:10.37,2016-07-23 17:19:00,
2016-07-23 12:24:00,92.3,74.9,29.96,SE,135,0.0,0.0,57,0.00,CLR,,0.00,WeatherDisplay:10.37,2016-07-23 17:24:00,
2016-07-23 12:29:00,92.5,74.5,29.96,East,90,0.0,0.0,56,0.00,CLR,,0.00,WeatherDisplay:10.37,2016-07-23 17:29:00,
2016-07-23 12:34:00,92.7,74.1,29.96,South,180,0.0,0.0,55,0.00,CLR,,0.00,WeatherDisplay:10.37,2016-07-23 17:34:00,
2016-07-23 12:39:00,92.8,74.3,29.94,South,180,0.0,0.0,55,0.00,CLR,,0.00,WeatherDisplay:10.37,2016-07-23 17:39:00,
2016-07-23 12:44:00,93.0,74.5,29.94,South,180,0.0,0.0,55,0.00,CLR,,0.00,WeatherDisplay:10.37,2016-07-23 17:44:00,
2016-07-23 12:49:00,93.2,74.1,29.94,North,0,0.0,0.0,54,0.00,CLR,,0.00,WeatherDisplay:10.37,2016-07-23 17:49:00,
2016-07-23 12:54:00,93.2,74.1,29.94,SE,135,0.0,0.0,54,0.00,CLR,,0.00,WeatherDisplay:10.37,2016-07-23 17:54:00,
2016-07-23 12:59:00,93.6,75.0,29.94,WSW,248,0.0,0.0,55,0.00,CLR,,0.00,WeatherDisplay:10.37,2016-07-23 17:59:00,
2016-07-23 13:04:00,93.7,74.6,29.94,ESE,112,0.0,0.0,54,0.00,CLR,,0.00,WeatherDisplay:10.37,2016-07-23 18:04:00,
2016-07-23 13:09:00,94.1,74.4,29.94,SE,135,0.0,0.0,53,0.00,CLR,,0.00,WeatherDisplay:10.37,2016-07-23 18:09:00,
2016-07-23 13:14:00,94.1,73.8,29.94,SSE,158,0.0,0.0,52,0.00,CLR,,0.00,WeatherDisplay:10.37,2016-07-23 18:14:00,
2016-07-23 13:27:00,94.3,74.5,29.94,SSE,158,0.0,0.0,53,0.00,CLR,,0.00,WeatherDisplay:10.37,2016-07-23 18:27:00,
2016-07-23 13:32:00,94.3,74.5,29.94,SSE,158,0.0,0.0,53,0.00,CLR,,0.00,WeatherDisplay:10.37,2016-07-23 18:32:00,
2016-07-23 13:37:00,94.1,73.8,29.94,South,180,0.0,0.0,52,0.00,CLR,,0.00,WeatherDisplay:10.37,2016-07-23 18:37:00,
2016-07-23 13:42:00,93.9,73.6,29.93,South,180,0.0,0.0,52,0.00,CLR,,0.00,WeatherDisplay:10.37,2016-07-23 18:42:00,
2016-07-23 13:47:00,93.9,74.2,29.93,ESE,112,0.0,0.0,53,0.00,CLR,,0.00,WeatherDisplay:10.37,2016-07-23 18:47:00,
2016-07-23 13:52:00,93.9,73.6,29.93,SW,225,0.0,0.0,52,0.00,CLR,,0.00,WeatherDisplay:10.37,2016-07-23 18:52:00,
2016-07-23 13:57:00,94.5,73.5,29.93,SSE,158,0.0,0.0,51,0.00,CLR,,0.00,WeatherDisplay:10.37,2016-07-23 18:57:00,
2016-07-23 14:02:00,94.6,73.7,29.92,SSE,158,0.0,0.0,51,0.00,CLR,,0.00,WeatherDisplay:10.37,2016-07-23 19:02:00,
2016-07-23 14:07:00,95.0,74.0,29.92,SE,135,0.0,0.0,51,0.00,CLR,,0.00,WeatherDisplay:10.37,2016-07-23 19:07:00,
2016-07-23 14:12:00,95.2,74.2,29.92,SSE,158,0.0,0.0,51,0.00,CLR,,0.00,WeatherDisplay:10.37,2016-07-23 19:12:00,
2016-07-23 14:17:00,95.4,73.8,29.92,South,180,0.0,0.0,50,0.00,CLR,,0.00,WeatherDisplay:10.37,2016-07-23 19:17:00,
2016-07-23 14:22:00,95.7,73.5,29.92,WNW,292,0.0,0.0,49,0.00,CLR,,0.00,WeatherDisplay:10.37,2016-07-23 19:22:00,
2016-07-23 14:27:00,96.1,73.8,29.92,SW,225,0.0,0.0,49,0.00,CLR,,0.00,WeatherDisplay:10.37,2016-07-23 19:27:00,
2016-07-23 14:32:00,96.3,74.0,29.92,SSW,202,0.0,0.0,49,0.00,CLR,,0.00,WeatherDisplay:10.37,2016-07-23 19:32:00,
2016-07-23 14:37:00,96.4,73.5,29.92,SSW,202,0.0,0.0,48,0.00,CLR,,0.00,WeatherDisplay:10.37,2016-07-23 19:37:00,
2016-07-23 14:42:00,96.6,73.7,29.91,WSW,248,0.0,0.0,48,0.00,CLR,,0.00,WeatherDisplay:10.37,2016-07-23 19:42:00,
2016-07-23 14:47:00,96.4,74.2,29.91,SSE,158,0.0,0.0,49,0.00,CLR,,0.00,WeatherDisplay:10.37,2016-07-23 19:47:00,
2016-07-23 14:52:00,96.4,74.2,29.91,ESE,112,0.0,0.0,49,0.00,CLR,,0.00,WeatherDisplay:10.37,2016-07-23 19:52:00,
2016-07-23 14:57:00,96.4,73.5,29.91,ESE,112,0.0,0.0,48,0.00,CLR,,0.00,WeatherDisplay:10.37,2016-07-23 19:57:00,
2016-07-23 15:02:00,96.3,73.4,29.91,NNE,22,0.0,0.0,48,0.00,CLR,,0.00,WeatherDisplay:10.37,2016-07-23 20:02:00,
2016-07-23 15:07:00,96.8,73.9,29.91,ENE,68,0.0,0.0,48,0.00,CLR,,0.00,WeatherDisplay:10.37,2016-07-23 20:07:00,
2016-07-23 15:12:00,96.6,73.7,29.91,SE,135,0.0,0.0,48,0.00,CLR,,0.00,WeatherDisplay:10.37,2016-07-23 20:12:00,
2016-07-23 15:17:00,96.6,73.7,29.91,SE,135,0.0,0.0,48,0.00,CLR,,0.00,WeatherDisplay:10.37,2016-07-23 20:17:00,
2016-07-23 15:22:00,96.8,73.9,29.90,ESE,112,0.0,0.0,48,0.00,CLR,,0.00,WeatherDisplay:10.37,2016-07-23 20:22:00,
2016-07-23 15:27:00,97.0,73.4,29.90,ENE,68,0.0,0.0,47,0.00,CLR,,0.00,WeatherDisplay:10.37,2016-07-23 20:27:00,
2016-07-23 15:32:00,97.0,74.0,29.90,ENE,68,0.0,0.0,48,0.00,CLR,,0.00,WeatherDisplay:10.37,2016-07-23 20:32:00,
2016-07-23 15:37:00,97.0,73.4,29.90,SE,135,0.0,0.0,47,0.00,CLR,,0.00,WeatherDisplay:10.37,2016-07-23 20:37:00,
2016-07-23 15:42:00,97.0,74.0,29.89,East,90,0.0,0.0,48,0.00,CLR,,0.00,WeatherDisplay:10.37,2016-07-23 20:42:00,
2016-07-23 15:47:00,97.3,74.4,29.89,ESE,112,0.0,0.0,48,0.00,CLR,,0.00,WeatherDisplay:10.37,2016-07-23 20:47:00,
2016-07-23 15:52:00,97.7,74.1,29.89,East,90,0.0,0.0,47,0.00,CLR,,0.00,WeatherDisplay:10.37,2016-07-23 20:52:00,
2016-07-23 15:57:00,98.1,73.7,29.89,ESE,112,0.0,0.0,46,0.00,CLR,,0.00,WeatherDisplay:10.37,2016-07-23 20:57:00,
2016-07-23 16:02:00,98.1,74.4,29.88,SE,135,0.0,0.0,47,0.00,CLR,,0.00,WeatherDisplay:10.37,2016-07-23 21:02:00,
2016-07-23 16:07:00,98.2,73.9,29.88,SE,135,0.0,0.0,46,0.00,CLR,,0.00,WeatherDisplay:10.37,2016-07-23 21:07:00,
2016-07-23 16:12:00,98.1,73.7,29.88,SSE,158,0.0,0.0,46,0.00,CLR,,0.00,WeatherDisplay:10.37,2016-07-23 21:12:00,
2016-07-23 16:17:00,98.2,73.9,29.88,SE,135,0.0,0.0,46,0.00,CLR,,0.00,WeatherDisplay:10.37,2016-07-23 21:17:00,
2016-07-23 16:22:00,98.2,73.3,29.87,SE,135,0.0,0.0,45,0.00,CLR,,0.00,WeatherDisplay:10.37,2016-07-23 21:22:00,
2016-07-23 16:27:00,98.2,73.3,29.87,SSW,202,0.0,0.0,45,0.00,CLR,,0.00,WeatherDisplay:10.37,2016-07-23 21:27:00,
2016-07-23 16:32:00,98.4,73.4,29.87,SE,135,0.0,0.0,45,0.00,CLR,,0.00,WeatherDisplay:10.37,2016-07-23 21:32:00,
2016-07-23 16:37:00,98.6,73.6,29.87,East,90,0.0,0.0,45,0.00,CLR,,0.00,WeatherDisplay:10.37,2016-07-23 21:37:00,
2016-07-23 16:42:00,98.8,73.7,29.88,SE,135,0.0,0.0,45,0.00,CLR,,0.00,WeatherDisplay:10.37,2016-07-23 21:42:00,
2016-07-23 16:47:00,98.8,73.7,29.88,ESE,112,0.0,0.0,45,0.00,CLR,,0.00,WeatherDisplay:10.37,2016-07-23 21:47:00,
2016-07-23 16:52:00,98.8,73.1,29.88,ESE,112,0.0,0.0,44,0.00,CLR,,0.00,WeatherDisplay:10.37,2016-07-23 21:52:00,
2016-07-23 16:57:00,98.8,73.7,29.88,SSE,158,0.0,0.0,45,0.00,CLR,,0.00,WeatherDisplay:10.37,2016-07-23 21:57:00,
2016-07-23 17:02:00,98.4,72.7,29.86,SW,225,0.0,0.0,44,0.00,CLR,,0.00,WeatherDisplay:10.37,2016-07-23 22:02:00,
2016-07-23 17:07:00,98.2,73.3,29.86,SE,135,0.0,0.0,45,0.00,CLR,,0.00,WeatherDisplay:10.37,2016-07-23 22:07:00,
2016-07-23 17:12:00,98.2,73.9,29.86,ESE,112,0.0,0.0,46,0.00,CLR,,0.00,WeatherDisplay:10.37,2016-07-23 22:12:00,
2016-07-23 17:17:00,98.4,73.4,29.86,SE,135,0.0,0.0,45,0.00,CLR,,0.00,WeatherDisplay:10.37,2016-07-23 22:17:00,
2016-07-23 17:22:00,98.4,73.4,29.86,SE,135,0.0,0.0,45,0.00,CLR,,0.00,WeatherDisplay:10.37,2016-07-23 22:22:00,
2016-07-23 17:27:00,98.4,73.4,29.86,ESE,112,0.0,0.0,45,0.00,CLR,,0.00,WeatherDisplay:10.37,2016-07-23 22:27:00,
2016-07-23 17:32:00,98.6,73.6,29.86,ENE,68,0.0,0.0,45,0.00,CLR,,0.00,WeatherDisplay:10.37,2016-07-23 22:32:00,
2016-07-23 17:37:00,98.4,73.4,29.86,ESE,112,0.0,0.0,45,0.00,CLR,,0.00,WeatherDisplay:10.37,2016-07-23 22:37:00,
2016-07-23 17:42:00,98.6,73.6,29.85,ESE,112,0.0,0.0,45,0.00,CLR,,0.00,WeatherDisplay:10.37,2016-07-23 22:42:00,
2016-07-23 17:47:00,98.8,73.7,29.85,ENE,68,0.0,0.0,45,0.00,CLR,,0.00,WeatherDisplay:10.37,2016-07-23 22:47:00,
2016-07-23 17:52:00,98.8,73.7,29.85,ESE,112,0.0,0.0,45,0.00,CLR,,0.00,WeatherDisplay:10.37,2016-07-23 22:52:00,
2016-07-23 17:57:00,99.0,73.9,29.85,East,90,0.0,0.0,45,0.00,CLR,,0.00,WeatherDisplay:10.37,2016-07-23 22:57:00,
2016-07-23 18:02:00,99.1,74.1,29.84,SSW,202,0.0,0.0,45,0.00,CLR,,0.00,WeatherDisplay:10.37,2016-07-23 23:02:00,
2016-07-23 18:07:00,99.5,73.7,29.84,East,90,0.0,0.0,44,0.00,CLR,,0.00,WeatherDisplay:10.37,2016-07-23 23:07:00,
2016-07-23 18:12:00,99.7,73.9,29.84,West,270,0.0,0.0,44,0.00,CLR,,0.00,WeatherDisplay:10.37,2016-07-23 23:12:00,
2016-07-23 18:17:00,100.0,73.5,29.84,ESE,112,0.0,0.0,43,0.00,CLR,,0.00,WeatherDisplay:10.37,2016-07-23 23:17:00,
2016-07-23 18:22:00,100.0,73.5,29.84,ENE,68,0.0,0.0,43,0.00,CLR,,0.00,WeatherDisplay:10.37,2016-07-23 23:22:00,
2016-07-23 18:27:00,100.2,73.0,29.84,East,90,0.0,0.0,42,0.00,CLR,,0.00,WeatherDisplay:10.37,2016-07-23 23:27:00,
2016-07-23 18:32:00,100.0,72.8,29.84,ESE,112,0.0,0.0,42,0.00,CLR,,0.00,WeatherDisplay:10.37,2016-07-23 23:32:00,
2016-07-23 18:37:00,100.4,73.1,29.84,SSW,202,0.0,0.0,42,0.00,CLR,,0.00,WeatherDisplay:10.37,2016-07-23 23:37:00,